Time;durP1;ratioP1;P1;durP2;ratioP2;P2;SDS_P1;SDS_P2;PMS_P1;PMS_P2;Temp;Humidity;BMP_temperature;BMP_pressure;BME280_temperature;BME280_humidity;BME280_pressure;Samples;Min_cycle;Max_cycle;Signal;HPM_P1;HPM_P2
2022/02/24 00:02:20;;;;;;;7.88;2.38;;;9.70;94.00;;;;;;5091823;28;20063;-65
2022/02/24 00:04:48;;;;;;;9.68;2.08;;;9.70;94.00;;;;;;5094897;28;20475;-65
2022/02/24 00:07:14;;;;;;;11.27;2.13;;;9.70;94.00;;;;;;5095357;28;20032;-66
2022/02/24 00:09:39;;;;;;;4.75;2.17;;;9.80;94.10;;;;;;5083358;28;20382;-66
2022/02/24 00:12:06;;;;;;;11.73;2.33;;;9.70;94.00;;;;;;5095957;28;20043;-66
2022/02/24 00:14:33;;;;;;;9.43;1.83;;;9.70;94.00;;;;;;5083296;28;20372;-66
2022/02/24 00:16:59;;;;;;;11.48;2.17;;;9.80;94.10;;;;;;5095718;28;20043;-66
2022/02/24 00:19:25;;;;;;;4.20;1.80;;;9.70;94.00;;;;;;5095733;28;20028;-66
2022/02/24 00:21:50;;;;;;;6.05;1.75;;;9.70;94.00;;;;;;5095333;28;20032;-66
2022/02/24 00:24:16;;;;;;;6.72;1.73;;;9.70;94.00;;;;;;5082433;28;20461;-66
2022/02/24 00:26:42;;;;;;;13.88;1.98;;;9.70;93.90;;;;;;5096061;28;20032;-66
2022/02/24 00:29:08;;;;;;;5.53;1.75;;;9.70;94.00;;;;;;5076942;28;20055;-66
2022/02/24 00:31:34;;;;;;;11.18;1.92;;;9.80;93.90;;;;;;5095908;28;20072;-66
2022/02/24 00:34:00;;;;;;;9.52;2.50;;;9.80;94.00;;;;;;5095613;28;20043;-66
2022/02/24 00:36:25;;;;;;;6.47;1.95;;;9.80;94.00;;;;;;5084974;28;20135;-66
2022/02/24 00:38:51;;;;;;;6.40;1.52;;;9.80;94.00;;;;;;5095241;28;20689;-66
2022/02/24 00:41:18;;;;;;;5.15;1.80;;;9.80;94.00;;;;;;5095981;28;20487;-66
2022/02/24 00:43:44;;;;;;;10.70;2.08;;;9.70;94.00;;;;;;5095098;28;20052;-66
2022/02/24 00:46:09;;;;;;;7.25;1.92;;;9.80;94.00;;;;;;5095500;28;20068;-66
2022/02/24 00:48:35;;;;;;;6.50;2.33;;;9.70;94.00;;;;;;5095406;28;20028;-66
2022/02/24 00:51:01;;;;;;;7.38;1.50;;;9.70;94.00;;;;;;5095075;28;20070;-66
2022/02/24 00:53:26;;;;;;;15.43;2.33;;;9.70;94.00;;;;;;5081527;28;20387;-66
2022/02/24 00:55:52;;;;;;;12.15;2.15;;;9.80;94.10;;;;;;5095497;28;20118;-66
2022/02/24 00:58:17;;;;;;;2.20;1.30;;;9.70;94.00;;;;;;5081497;28;20024;-66
2022/02/24 01:00:43;;;;;;;13.05;2.78;;;9.80;94.00;;;;;;5095226;28;20043;-66
2022/02/24 01:03:09;;;;;;;9.55;1.48;;;9.70;94.30;;;;;;5081510;28;20040;-66
2022/02/24 01:05:34;;;;;;;8.18;2.58;;;9.70;94.00;;;;;;5093799;28;20032;-66
2022/02/24 01:08:00;;;;;;;10.13;2.60;;;9.70;94.00;;;;;;5089209;28;20048;-66
2022/02/24 01:10:26;;;;;;;9.38;1.88;;;9.70;94.00;;;;;;5087840;28;20386;-66
2022/02/24 01:12:52;;;;;;;3.58;1.55;;;9.70;94.00;;;;;;5080726;28;20436;-66
2022/02/24 01:15:17;;;;;;;8.02;2.08;;;9.70;94.00;;;;;;5093707;28;20019;-66
2022/02/24 01:17:43;;;;;;;4.70;1.40;;;9.70;94.00;;;;;;5094790;28;20487;-66
2022/02/24 01:20:10;;;;;;;8.27;1.90;;;9.70;94.00;;;;;;5093584;28;20030;-66
2022/02/24 01:22:36;;;;;;;9.05;2.45;;;9.60;94.10;;;;;;5091587;28;20082;-66
2022/02/24 01:25:03;;;;;;;3.63;1.10;;;9.60;94.00;;;;;;5081861;28;20063;-66
2022/02/24 01:27:29;;;;;;;9.63;1.88;;;9.60;94.00;;;;;;5084806;28;20112;-66
2022/02/24 01:29:54;;;;;;;11.77;2.20;;;9.60;94.00;;;;;;5091544;28;20546;-66
2022/02/24 01:32:20;;;;;;;15.75;2.50;;;9.60;94.30;;;;;;5092996;28;20487;-66
2022/02/24 01:34:46;;;;;;;11.45;2.33;;;9.60;94.00;;;;;;5094192;28;20107;-66
2022/02/24 01:37:12;;;;;;;7.55;2.00;;;9.60;94.00;;;;;;5092547;28;20040;-66
2022/02/24 01:39:40;;;;;;;2.80;1.30;;;9.60;94.00;;;;;;5097686;28;20056;-66
2022/02/24 01:42:06;;;;;;;7.07;1.48;;;9.60;94.00;;;;;;5085075;28;20035;-66
2022/02/24 01:44:40;;;;;;;7.78;2.38;;;9.60;94.10;;;;;;5089823;28;20031;-66
2022/02/24 01:47:06;;;;;;;7.53;1.88;;;9.60;94.00;;;;;;5079418;28;20029;-66
2022/02/24 01:49:32;;;;;;;6.95;1.60;;;9.60;94.00;;;;;;5086108;28;20033;-66
2022/02/24 01:51:58;;;;;;;5.45;1.92;;;9.60;94.00;;;;;;5088983;28;20067;-66
2022/02/24 01:54:24;;;;;;;20.80;2.30;;;9.60;94.00;;;;;;5093906;28;20030;-66
2022/02/24 01:56:50;;;;;;;1.95;1.45;;;9.60;94.00;;;;;;5100425;28;20492;-66
2022/02/24 01:59:18;;;;;;;10.50;2.05;;;9.60;94.00;;;;;;5099867;28;20024;-66
2022/02/24 02:01:44;;;;;;;14.07;2.13;;;9.50;94.00;;;;;;5092716;28;20048;-66
2022/02/24 02:04:10;;;;;;;7.82;1.70;;;9.60;94.10;;;;;;5081087;28;20396;-66
2022/02/24 02:06:37;;;;;;;7.35;1.92;;;9.60;94.00;;;;;;5106453;28;20052;-66
2022/02/24 02:09:03;;;;;;;12.60;2.20;;;9.50;94.00;;;;;;5077937;28;20078;-66
2022/02/24 02:11:29;;;;;;;7.47;1.80;;;9.50;94.00;;;;;;5082599;28;20474;-66
2022/02/24 02:13:55;;;;;;;5.53;1.77;;;9.50;94.00;;;;;;5102430;28;20391;-66
2022/02/24 02:16:20;;;;;;;9.70;2.22;;;9.60;94.10;;;;;;5093408;28;20024;-66
2022/02/24 02:18:46;;;;;;;8.45;2.30;;;9.60;94.10;;;;;;5090677;28;20037;-66
2022/02/24 02:21:11;;;;;;;4.43;1.52;;;9.50;94.00;;;;;;5083181;28;20044;-66
2022/02/24 02:23:37;;;;;;;7.50;1.77;;;9.50;94.00;;;;;;5093164;28;20016;-66
2022/02/24 02:26:03;;;;;;;6.63;2.58;;;9.50;94.00;;;;;;5092194;28;20036;-66
2022/02/24 02:28:29;;;;;;;9.57;2.08;;;9.50;94.00;;;;;;5089696;28;20036;-66
2022/02/24 02:30:54;;;;;;;5.38;1.60;;;9.50;94.00;;;;;;5093969;28;20039;-66
2022/02/24 02:33:20;;;;;;;4.75;1.90;;;9.40;94.00;;;;;;5096119;28;20093;-66
2022/02/24 02:35:48;;;;;;;10.15;2.25;;;9.40;94.00;;;;;;5087383;28;20475;-66
2022/02/24 02:38:14;;;;;;;5.10;1.85;;;9.30;94.00;;;;;;5079820;28;20040;-66
2022/02/24 02:40:40;;;;;;;16.58;2.65;;;9.40;94.00;;;;;;5093502;28;20074;-66
2022/02/24 02:43:07;;;;;;;9.60;1.98;;;9.30;94.10;;;;;;5078103;28;20032;-66
2022/02/24 02:45:33;;;;;;;9.07;2.42;;;9.30;94.20;;;;;;5081256;28;20066;-66
2022/02/24 02:48:00;;;;;;;5.82;1.40;;;9.30;94.10;;;;;;5092946;28;20077;-66
2022/02/24 02:50:29;;;;;;;14.32;3.25;;;9.30;94.10;;;;;;5092911;28;20032;-66
2022/02/24 02:52:56;;;;;;;8.23;2.20;;;9.30;94.20;;;;;;5089960;28;20036;-66
2022/02/24 02:55:22;;;;;;;10.05;2.40;;;9.30;94.20;;;;;;5083204;28;20035;-66
2022/02/24 02:57:48;;;;;;;13.40;2.13;;;9.20;94.10;;;;;;5092259;28;20472;-66
2022/02/24 03:00:15;;;;;;;11.68;2.00;;;9.20;94.10;;;;;;5083276;28;20044;-66
2022/02/24 03:02:41;;;;;;;7.80;2.33;;;9.20;94.20;;;;;;5088208;28;20040;-66
2022/02/24 03:05:08;;;;;;;7.75;1.98;;;9.30;94.20;;;;;;5083182;28;20029;-66
2022/02/24 03:07:34;;;;;;;6.32;1.30;;;9.20;94.10;;;;;;5089911;28;20028;-66
2022/02/24 03:10:00;;;;;;;4.75;1.65;;;9.20;94.10;;;;;;5093138;28;20043;-66
2022/02/24 03:12:25;;;;;;;4.82;1.88;;;9.20;94.10;;;;;;5078673;28;20039;-66
2022/02/24 03:14:51;;;;;;;3.70;1.70;;;9.20;94.10;;;;;;5092793;28;20103;-67
2022/02/24 03:17:17;;;;;;;5.80;1.70;;;9.20;94.20;;;;;;5079216;28;20032;-66
2022/02/24 03:19:43;;;;;;;9.05;2.17;;;9.10;94.10;;;;;;5091526;28;20032;-66
2022/02/24 03:22:10;;;;;;;9.52;2.78;;;9.20;94.10;;;;;;5075443;28;20115;-66
2022/02/24 03:24:36;;;;;;;12.57;2.03;;;9.20;94.10;;;;;;5085029;28;20024;-66
2022/02/24 03:27:03;;;;;;;4.97;1.95;;;9.10;94.00;;;;;;5092307;28;20030;-66
2022/02/24 03:29:29;;;;;;;9.32;2.10;;;9.10;94.00;;;;;;5092634;28;20040;-66
2022/02/24 03:31:55;;;;;;;10.82;1.80;;;9.20;94.10;;;;;;5092156;28;20051;-66
2022/02/24 03:34:20;;;;;;;6.60;2.05;;;9.20;94.10;;;;;;5091934;28;20085;-66
2022/02/24 03:36:46;;;;;;;7.20;1.60;;;9.10;94.10;;;;;;5090566;28;20067;-66
2022/02/24 03:39:12;;;;;;;10.43;2.08;;;9.10;93.90;;;;;;5079384;28;20032;-66
2022/02/24 03:41:37;;;;;;;7.60;1.70;;;9.10;93.90;;;;;;5088840;28;20035;-67
2022/02/24 03:44:03;;;;;;;3.45;1.48;;;9.10;94.00;;;;;;5091725;28;20036;-66
2022/02/24 03:46:29;;;;;;;3.63;1.50;;;9.10;94.00;;;;;;5091169;28;20071;-66
2022/02/24 03:48:55;;;;;;;8.75;1.85;;;9.10;94.00;;;;;;5091534;28;20032;-66
2022/02/24 03:51:20;;;;;;;16.00;2.05;;;9.10;94.00;;;;;;5091682;28;20088;-66
2022/02/24 03:53:46;;;;;;;4.70;1.45;;;9.00;93.90;;;;;;5091357;28;20027;-66
2022/02/24 03:56:12;;;;;;;6.22;1.45;;;9.10;94.10;;;;;;5092304;28;20594;-67
2022/02/24 03:58:37;;;;;;;2.97;1.38;;;9.00;94.00;;;;;;5092227;28;20035;-66
2022/02/24 04:01:03;;;;;;;8.38;2.03;;;9.00;94.00;;;;;;5091836;28;20102;-66
2022/02/24 04:03:29;;;;;;;4.43;1.48;;;9.00;94.00;;;;;;5091835;28;20056;-67
2022/02/24 04:05:55;;;;;;;6.10;1.70;;;9.00;94.10;;;;;;5097370;28;20130;-67
2022/02/24 04:08:21;;;;;;;7.25;2.20;;;9.00;94.10;;;;;;5091997;28;20024;-67
2022/02/24 04:10:46;;;;;;;8.32;1.83;;;8.90;94.10;;;;;;5092089;28;20471;-68
2022/02/24 04:13:15;;;;;;;10.63;2.10;;;8.90;94.10;;;;;;5085240;28;20032;-67
2022/02/24 04:15:41;;;;;;;7.72;2.10;;;8.90;94.20;;;;;;5085341;28;20036;-66
2022/02/24 04:18:06;;;;;;;8.00;2.00;;;8.80;94.10;;;;;;5091031;28;20426;-66
2022/02/24 04:20:32;;;;;;;8.82;2.03;;;8.80;94.10;;;;;;5091602;28;20028;-66
2022/02/24 04:22:58;;;;;;;12.65;1.90;;;8.80;94.20;;;;;;5084418;28;20035;-66
2022/02/24 04:25:24;;;;;;;10.45;1.92;;;8.80;94.20;;;;;;5091188;28;20506;-66
2022/02/24 04:27:51;;;;;;;9.23;2.65;;;8.80;94.30;;;;;;5091470;28;20036;-66
2022/02/24 04:30:19;;;;;;;9.52;2.05;;;8.80;94.30;;;;;;5090806;28;20451;-66
2022/02/24 04:32:45;;;;;;;7.10;1.80;;;8.80;94.30;;;;;;5091137;28;20109;-66
2022/02/24 04:35:11;;;;;;;6.68;1.70;;;8.80;94.30;;;;;;5084801;28;20094;-66
2022/02/24 04:37:37;;;;;;;9.05;1.98;;;8.80;94.30;;;;;;5090583;28;20346;-66
2022/02/24 04:40:05;;;;;;;3.72;1.52;;;8.80;94.30;;;;;;5088156;28;20467;-66
2022/02/24 04:42:31;;;;;;;14.70;2.38;;;8.80;94.30;;;;;;5088157;28;20130;-66
2022/02/24 04:44:57;;;;;;;11.10;2.08;;;8.80;94.30;;;;;;5090772;28;20028;-66
2022/02/24 04:47:24;;;;;;;11.48;1.92;;;8.80;94.30;;;;;;5091021;28;20036;-66
2022/02/24 04:49:49;;;;;;;8.38;2.35;;;8.70;94.30;;;;;;5091514;28;20065;-66
2022/02/24 04:52:15;;;;;;;5.90;1.52;;;8.70;94.40;;;;;;5092281;28;20036;-66
2022/02/24 04:54:41;;;;;;;5.95;1.85;;;8.70;94.40;;;;;;5095579;28;20028;-66
2022/02/24 04:57:06;;;;;;;11.27;2.22;;;8.70;94.40;;;;;;5094576;28;20399;-66
2022/02/24 04:59:32;;;;;;;9.77;2.20;;;8.70;94.40;;;;;;5085819;28;20032;-66
2022/02/24 05:01:58;;;;;;;6.82;1.98;;;8.70;94.50;;;;;;5078108;28;20067;-66
2022/02/24 05:04:23;;;;;;;6.43;1.67;;;8.70;94.40;;;;;;5099793;28;20024;-66
2022/02/24 05:06:49;;;;;;;12.18;2.22;;;8.70;94.50;;;;;;5098331;28;20077;-66
2022/02/24 05:09:16;;;;;;;6.43;1.70;;;8.70;94.50;;;;;;5084808;28;20514;-66
2022/02/24 05:11:42;;;;;;;7.93;1.48;;;8.70;94.60;;;;;;5078214;28;20134;-66
2022/02/24 05:14:08;;;;;;;5.18;1.58;;;8.70;94.60;;;;;;5094287;28;20107;-66
2022/02/24 05:16:36;;;;;;;9.15;2.05;;;8.70;94.60;;;;;;5090508;28;20078;-66
2022/02/24 05:19:03;;;;;;;11.63;2.40;;;8.70;94.60;;;;;;5085903;28;20038;-66
2022/02/24 05:21:28;;;;;;;7.63;1.90;;;8.60;94.60;;;;;;5094549;28;20739;-66
2022/02/24 05:23:54;;;;;;;5.18;1.60;;;8.70;94.60;;;;;;5095087;28;20058;-66
2022/02/24 05:26:19;;;;;;;8.27;1.70;;;8.70;94.70;;;;;;5094050;28;20028;-66
2022/02/24 05:28:45;;;;;;;8.23;2.20;;;8.70;94.80;;;;;;5094625;28;20463;-66
2022/02/24 05:31:11;;;;;;;9.70;2.33;;;8.60;94.80;;;;;;5076745;28;20538;-66
2022/02/24 05:33:37;;;;;;;10.80;2.45;;;8.60;94.80;;;;;;5094163;28;20082;-66
2022/02/24 05:36:03;;;;;;;8.15;2.33;;;8.60;94.70;;;;;;5093339;28;20111;-66
2022/02/24 05:38:30;;;;;;;8.32;2.22;;;8.60;94.80;;;;;;5094635;28;20118;-66
2022/02/24 05:40:56;;;;;;;8.75;1.88;;;8.70;94.80;;;;;;5093833;28;20044;-66
2022/02/24 05:43:22;;;;;;;13.48;2.20;;;8.70;94.80;;;;;;5090856;28;20025;-66
2022/02/24 05:45:47;;;;;;;13.20;2.80;;;8.70;94.80;;;;;;5073961;28;20511;-66
2022/02/24 05:48:13;;;;;;;7.13;2.03;;;8.70;94.80;;;;;;5077619;28;20483;-66
2022/02/24 05:50:40;;;;;;;2.95;1.10;;;8.70;94.80;;;;;;5094520;28;20036;-66
2022/02/24 05:53:06;;;;;;;9.05;2.45;;;8.70;95.10;;;;;;5093746;28;20040;-66
2022/02/24 05:55:32;;;;;;;3.85;1.25;;;8.70;94.80;;;;;;5093864;28;20118;-66
2022/02/24 05:57:58;;;;;;;6.00;1.80;;;8.70;94.80;;;;;;5093380;28;20035;-66
2022/02/24 06:00:24;;;;;;;9.50;2.25;;;8.70;94.80;;;;;;5093738;28;20035;-66
2022/02/24 06:02:50;;;;;;;10.80;2.08;;;8.70;94.70;;;;;;5092646;28;20052;-66
2022/02/24 06:05:16;;;;;;;10.23;2.15;;;8.70;94.70;;;;;;5088266;28;20086;-66
2022/02/24 06:07:42;;;;;;;7.97;2.08;;;8.80;94.80;;;;;;5086985;28;20046;-66
2022/02/24 06:10:12;;;;;;;6.93;1.92;;;8.70;94.70;;;;;;5087344;28;20021;-67
2022/02/24 06:12:38;;;;;;;5.72;1.58;;;8.70;94.70;;;;;;5090496;28;20040;-66
2022/02/24 06:15:05;;;;;;;7.45;1.90;;;8.70;94.80;;;;;;5089777;28;20532;-66
2022/02/24 06:17:31;;;;;;;4.70;1.98;;;8.70;94.80;;;;;;5090377;28;20040;-66
2022/02/24 06:19:56;;;;;;;6.05;1.25;;;8.70;94.80;;;;;;5093833;28;20105;-67
2022/02/24 06:22:22;;;;;;;7.32;1.95;;;8.70;94.90;;;;;;5092701;28;20466;-66
2022/02/24 06:24:48;;;;;;;4.90;2.03;;;8.70;94.90;;;;;;5093028;28;20024;-69
2022/02/24 06:27:14;;;;;;;3.90;1.40;;;8.70;95.00;;;;;;5093609;28;20036;-70
2022/02/24 06:29:40;;;;;;;7.32;1.90;;;8.70;95.00;;;;;;5093301;28;20084;-69
2022/02/24 06:32:06;;;;;;;10.27;2.47;;;8.70;95.00;;;;;;5079858;28;20498;-68
2022/02/24 06:34:32;;;;;;;12.85;2.75;;;8.70;95.00;;;;;;5093427;28;20113;-66
2022/02/24 06:36:58;;;;;;;6.40;1.83;;;8.70;95.00;;;;;;5087143;28;20060;-67
2022/02/24 06:39:23;;;;;;;4.38;2.10;;;8.70;95.30;;;;;;5090419;28;20104;-66
2022/02/24 06:41:49;;;;;;;7.53;2.30;;;8.70;95.10;;;;;;5088862;28;20028;-66
2022/02/24 06:44:15;;;;;;;6.38;1.80;;;8.70;95.10;;;;;;5091974;28;20027;-66
2022/02/24 06:46:41;;;;;;;7.28;2.67;;;8.70;95.10;;;;;;5092460;28;20040;-66
2022/02/24 06:49:07;;;;;;;5.65;1.80;;;8.70;95.10;;;;;;5088683;28;20028;-67
2022/02/24 06:51:34;;;;;;;11.07;1.65;;;8.70;95.10;;;;;;5074360;28;20028;-68
2022/02/24 06:53:59;;;;;;;11.77;2.45;;;8.70;95.20;;;;;;5092649;28;20028;-68
2022/02/24 06:56:25;;;;;;;6.30;2.03;;;8.70;95.20;;;;;;5092513;28;20105;-67
2022/02/24 06:58:51;;;;;;;5.75;2.15;;;8.70;95.20;;;;;;5091888;28;20020;-66
2022/02/24 07:01:17;;;;;;;10.15;1.92;;;8.70;95.30;;;;;;5088906;28;20430;-67
2022/02/24 07:03:43;;;;;;;11.35;2.15;;;8.70;95.30;;;;;;5089853;28;20115;-66
2022/02/24 07:06:09;;;;;;;12.45;2.17;;;8.70;95.30;;;;;;5089913;28;20028;-66
2022/02/24 07:08:35;;;;;;;11.48;2.58;;;8.70;95.30;;;;;;5088472;28;20112;-67
2022/02/24 07:11:03;;;;;;;8.52;2.70;;;8.70;95.40;;;;;;5088795;28;20036;-66
2022/02/24 07:13:29;;;;;;;12.65;2.50;;;8.70;95.40;;;;;;5085598;28;20455;-66
2022/02/24 07:15:55;;;;;;;6.75;1.67;;;8.70;95.40;;;;;;5091595;28;20027;-66
2022/02/24 07:18:20;;;;;;;7.38;2.22;;;8.70;95.50;;;;;;5091524;28;20028;-66
2022/02/24 07:20:46;;;;;;;16.25;2.50;;;8.70;95.50;;;;;;5088917;28;20499;-66
2022/02/24 07:23:15;;;;;;;6.88;2.25;;;8.70;95.50;;;;;;5089037;28;20032;-66
2022/02/24 07:25:41;;;;;;;4.63;1.50;;;8.80;95.50;;;;;;5089121;28;20030;-66
2022/02/24 07:28:08;;;;;;;5.07;2.22;;;8.80;95.50;;;;;;5089249;28;20371;-66
2022/02/24 07:30:37;;;;;;;12.50;2.90;;;8.80;95.50;;;;;;5091987;28;21007;-66
2022/02/24 07:33:04;;;;;;;11.23;2.72;;;8.80;95.50;;;;;;5085700;28;20817;-66
2022/02/24 07:35:30;;;;;;;1.92;0.98;;;8.80;95.50;;;;;;5090496;28;20032;-66
2022/02/24 07:37:56;;;;;;;3.13;1.60;;;8.80;95.50;;;;;;5086213;28;20036;-66
2022/02/24 07:40:21;;;;;;;5.47;2.03;;;8.80;95.50;;;;;;5090112;28;20034;-66
2022/02/24 07:42:47;;;;;;;8.75;2.42;;;8.80;95.60;;;;;;5088505;28;20422;-66
2022/02/24 07:45:17;;;;;;;5.40;1.88;;;8.90;95.60;;;;;;5090594;28;20108;-66
2022/02/24 07:47:42;;;;;;;8.88;2.40;;;8.80;95.60;;;;;;5090313;28;20032;-66
2022/02/24 07:50:13;;;;;;;8.60;2.47;;;8.90;95.60;;;;;;5090359;28;20020;-66
2022/02/24 07:52:43;;;;;;;8.82;2.53;;;8.90;95.60;;;;;;5091236;28;20043;-66
2022/02/24 07:55:10;;;;;;;6.47;1.95;;;8.90;95.70;;;;;;5091458;28;20063;-66
2022/02/24 07:57:42;;;;;;;4.90;1.77;;;8.90;95.70;;;;;;5091528;28;20031;-66
2022/02/24 08:00:13;;;;;;;9.43;1.55;;;8.90;95.70;;;;;;5091049;28;20040;-66
2022/02/24 08:02:40;;;;;;;4.35;1.95;;;8.90;95.80;;;;;;5088328;28;20055;-66
2022/02/24 08:05:09;;;;;;;5.78;2.05;;;8.90;95.80;;;;;;5092604;28;20464;-66
2022/02/24 08:07:34;;;;;;;6.72;1.92;;;8.90;95.80;;;;;;5088092;28;20048;-67
2022/02/24 08:10:00;;;;;;;6.43;2.22;;;8.90;95.80;;;;;;5091268;28;20107;-67
2022/02/24 08:12:44;;;;;;;12.77;2.67;;;8.90;95.80;;;;;;5091440;28;20032;-66
2022/02/24 08:15:14;;;;;;;4.60;2.22;;;9.00;95.80;;;;;;5088436;28;20559;-68
2022/02/24 08:17:41;;;;;;;8.35;2.30;;;9.00;95.80;;;;;;5072208;28;20049;-68
2022/02/24 08:20:08;;;;;;;12.60;2.60;;;9.00;95.80;;;;;;5085726;28;20119;-66
2022/02/24 08:22:36;;;;;;;11.38;2.95;;;9.10;95.80;;;;;;5090156;28;20032;-66
2022/02/24 08:25:02;;;;;;;14.68;3.08;;;9.10;95.80;;;;;;5089949;28;20047;-66
2022/02/24 08:27:28;;;;;;;6.13;1.85;;;9.10;95.80;;;;;;5083769;28;20028;-66
2022/02/24 08:29:54;;;;;;;16.52;2.33;;;9.10;95.80;;;;;;5090220;28;20092;-66
2022/02/24 08:32:20;;;;;;;6.35;1.95;;;9.10;95.80;;;;;;5091188;28;20040;-66
2022/02/24 08:34:48;;;;;;;7.57;2.22;;;9.10;95.80;;;;;;5088614;28;20482;-66
2022/02/24 08:37:14;;;;;;;6.78;1.90;;;9.20;95.80;;;;;;5091492;28;20044;-66
2022/02/24 08:39:40;;;;;;;13.75;3.08;;;9.20;95.80;;;;;;5094094;28;20059;-67
2022/02/24 08:42:05;;;;;;;4.40;1.88;;;9.20;95.80;;;;;;5093562;28;20020;-66
2022/02/24 08:44:31;;;;;;;15.45;1.92;;;9.30;95.80;;;;;;5094319;28;20052;-66
2022/02/24 08:46:57;;;;;;;11.50;2.83;;;9.20;95.80;;;;;;5094604;28;20379;-66
2022/02/24 08:49:22;;;;;;;6.22;2.15;;;9.30;95.80;;;;;;5081141;28;20055;-66
2022/02/24 08:51:48;;;;;;;9.15;2.42;;;9.30;95.80;;;;;;5092776;28;20433;-67
2022/02/24 08:54:14;;;;;;;4.75;1.80;;;9.30;95.80;;;;;;5091479;28;20357;-66
2022/02/24 08:56:41;;;;;;;13.70;3.28;;;9.30;95.70;;;;;;5092408;28;20027;-66
2022/02/24 08:59:07;;;;;;;9.07;2.78;;;9.30;95.80;;;;;;5094489;28;20028;-66
2022/02/24 09:01:33;;;;;;;6.60;2.03;;;9.30;95.80;;;;;;5094295;28;20043;-65
2022/02/24 09:03:59;;;;;;;8.52;2.58;;;9.40;95.90;;;;;;5095422;28;20122;-67
2022/02/24 09:06:24;;;;;;;17.83;2.08;;;9.30;95.90;;;;;;5099407;28;20040;-66
2022/02/24 09:08:50;;;;;;;7.57;1.45;;;9.30;95.90;;;;;;5085665;28;20067;-67
2022/02/24 09:11:17;;;;;;;10.00;2.45;;;9.30;95.90;;;;;;5087399;28;20093;-66
2022/02/24 09:13:43;;;;;;;6.88;1.77;;;9.30;95.90;;;;;;5083826;28;20399;-66
2022/02/24 09:16:09;;;;;;;9.80;2.22;;;9.30;96.00;;;;;;5094321;28;20024;-66
2022/02/24 09:18:35;;;;;;;10.38;2.75;;;9.30;96.00;;;;;;5091214;28;20054;-66
2022/02/24 09:21:01;;;;;;;15.35;3.08;;;9.40;96.00;;;;;;5091964;28;20024;-66
2022/02/24 09:23:26;;;;;;;5.75;2.38;;;9.40;96.00;;;;;;5085775;28;20115;-66
2022/02/24 09:26:12;;;;;;;11.75;3.13;;;9.40;96.10;;;;;;5074992;28;20033;-66
2022/02/24 09:28:38;;;;;;;9.55;2.55;;;9.40;96.00;;;;;;5093925;28;20122;-66
2022/02/24 09:31:07;;;;;;;15.73;3.10;;;9.40;96.00;;;;;;5093484;28;20073;-66
2022/02/24 09:33:33;;;;;;;15.40;2.97;;;9.40;96.00;;;;;;5093784;28;20043;-66
2022/02/24 09:35:59;;;;;;;5.05;2.35;;;9.40;96.00;;;;;;5081631;28;20040;-67
2022/02/24 09:38:25;;;;;;;10.27;2.28;;;9.40;96.00;;;;;;5093096;28;20035;-66
2022/02/24 09:40:56;;;;;;;9.65;1.55;;;9.40;96.10;;;;;;5084412;28;20060;-66
2022/02/24 09:43:32;;;;;;;13.65;3.13;;;9.40;96.40;;;;;;5090360;28;20438;-66
2022/02/24 09:46:04;;;;;;;12.05;3.00;;;9.40;96.20;;;;;;5092850;28;20472;-67
2022/02/24 09:48:33;;;;;;;11.82;2.83;;;9.40;96.20;;;;;;5093638;28;20126;-66
2022/02/24 09:51:05;;;;;;;10.00;2.83;;;9.40;96.30;;;;;;5093052;28;20043;-66
2022/02/24 09:53:32;;;;;;;10.15;2.63;;;9.40;96.50;;;;;;5093167;28;20032;-66
2022/02/24 09:55:59;;;;;;;9.20;2.60;;;9.40;96.50;;;;;;5092974;28;20519;-67
2022/02/24 09:58:25;;;;;;;4.70;1.98;;;9.40;96.60;;;;;;5093699;28;20089;-69
2022/02/24 10:00:51;;;;;;;3.03;1.30;;;9.40;96.70;;;;;;5093023;28;20451;-66
2022/02/24 10:03:27;;;;;;;9.32;3.10;;;9.50;96.80;;;;;;5089443;28;20040;-67
2022/02/24 10:05:53;;;;;;;8.77;2.35;;;9.50;96.70;;;;;;5093690;28;20031;-67
2022/02/24 10:08:26;;;;;;;6.90;2.13;;;9.50;96.70;;;;;;5093485;28;20032;-66
2022/02/24 10:10:52;;;;;;;9.75;2.70;;;9.60;96.70;;;;;;5088571;28;20081;-66
2022/02/24 10:13:17;;;;;;;5.63;1.67;;;9.60;96.60;;;;;;5084064;28;20445;-70
2022/02/24 10:15:52;;;;;;;5.10;2.15;;;9.60;96.60;;;;;;5087136;28;20121;-66
2022/02/24 10:18:19;;;;;;;8.10;2.70;;;9.70;96.50;;;;;;5080913;28;20028;-66
2022/02/24 10:21:03;;;;;;;14.75;2.92;;;9.70;96.50;;;;;;5092243;28;20036;-66
2022/02/24 10:23:36;;;;;;;;;;;9.70;96.50;;;;;;5085786;28;20041;-66
2022/02/24 10:26:10;;;;;;;7.00;2.45;;;9.80;96.50;;;;;;5073273;28;19924;-66
2022/02/24 10:28:46;;;;;;;7.40;2.92;;;9.80;96.50;;;;;;5080278;28;20047;-66
2022/02/24 10:31:18;;;;;;;9.57;3.00;;;9.80;96.50;;;;;;5092599;28;20044;-66
2022/02/24 10:33:47;;;;;;;9.15;2.85;;;9.80;96.60;;;;;;5092074;28;20026;-66
2022/02/24 10:36:26;;;;;;;13.80;2.75;;;9.80;96.60;;;;;;5089789;28;20085;-66
2022/02/24 10:39:13;;;;;;;10.43;3.17;;;9.80;96.60;;;;;;5092540;28;20032;-66
2022/02/24 10:41:41;;;;;;;8.35;2.28;;;9.80;96.60;;;;;;5092077;28;20035;-66
2022/02/24 10:44:10;;;;;;;10.90;3.28;;;9.80;96.70;;;;;;5092676;28;20174;-66
2022/02/24 10:46:36;;;;;;;10.70;2.95;;;9.80;96.80;;;;;;5092687;28;20039;-67
2022/02/24 10:49:01;;;;;;;7.20;2.50;;;9.70;96.90;;;;;;5091530;28;20032;-67
2022/02/24 10:51:32;;;;;;;10.50;2.83;;;9.80;96.90;;;;;;5087997;28;20085;-67
2022/02/24 10:54:02;;;;;;;10.57;2.95;;;9.80;96.90;;;;;;5091929;28;20474;-69
2022/02/24 10:56:29;;;;;;;7.30;2.88;;;9.80;97.10;;;;;;5090570;28;20032;-67
2022/02/24 10:58:55;;;;;;;13.35;3.28;;;9.80;96.90;;;;;;5091302;28;20123;-67
2022/02/24 11:01:23;;;;;;;9.05;3.03;;;9.80;96.90;;;;;;5077710;28;20201;-66
2022/02/24 11:03:54;;;;;;;12.80;2.58;;;9.80;96.90;;;;;;5084119;28;20048;-66
2022/02/24 11:06:22;;;;;;;12.00;2.72;;;9.80;96.80;;;;;;5097307;28;20032;-66
2022/02/24 11:08:49;;;;;;;10.13;2.47;;;9.80;96.80;;;;;;5092343;28;20047;-66
2022/02/24 11:11:19;;;;;;;12.85;2.95;;;9.80;96.90;;;;;;5078763;28;20361;-67
2022/02/24 11:13:45;;;;;;;8.40;2.22;;;9.80;96.80;;;;;;5093241;28;20028;-66
2022/02/24 11:16:11;;;;;;;9.35;3.55;;;9.90;96.80;;;;;;5090447;28;20381;-66
2022/02/24 11:18:39;;;;;;;9.85;3.13;;;9.90;96.90;;;;;;5090625;28;20038;-66
2022/02/24 11:21:06;;;;;;;3.78;2.15;;;10.00;96.90;;;;;;5088760;28;20035;-66
2022/02/24 11:23:33;;;;;;;16.48;3.38;;;9.90;96.90;;;;;;5088805;28;20421;-66
2022/02/24 11:26:21;;;;;;;9.48;2.60;;;10.00;96.80;;;;;;5087465;28;20036;-66
2022/02/24 11:28:58;;;;;;;8.02;1.95;;;10.10;96.80;;;;;;5086054;28;20021;-66
2022/02/24 11:31:39;;;;;;;12.13;2.50;;;10.10;96.80;;;;;;5086380;28;20031;-65
2022/02/24 11:34:04;;;;;;;7.60;2.08;;;10.20;96.80;;;;;;5088457;28;20094;-67
2022/02/24 11:36:45;;;;;;;11.40;2.60;;;10.20;96.80;;;;;;5084987;28;20458;-67
2022/02/24 11:39:14;;;;;;;8.27;2.42;;;10.30;96.80;;;;;;5078143;28;20150;-67
2022/02/24 11:41:45;;;;;;;6.40;1.73;;;10.30;96.60;;;;;;5080665;28;20450;-67
2022/02/24 11:44:33;;;;;;;9.55;3.17;;;10.30;96.70;;;;;;5085372;28;20047;-67
2022/02/24 11:47:12;;;;;;;4.10;1.92;;;10.40;96.70;;;;;;5088234;28;20020;-68
2022/02/24 11:49:53;;;;;;;8.80;2.60;;;10.50;96.60;;;;;;5081869;28;20477;-67
2022/02/24 11:52:24;;;;;;;7.65;2.08;;;10.50;96.60;;;;;;5089878;28;20100;-67
2022/02/24 11:54:50;;;;;;;7.65;2.58;;;10.50;96.50;;;;;;5082544;28;20032;-67
2022/02/24 11:57:35;;;;;;;3.55;1.88;;;10.60;96.50;;;;;;5087882;28;20035;-67
2022/02/24 12:00:11;;;;;;;7.78;2.28;;;10.60;96.40;;;;;;5092877;28;20035;-67
2022/02/24 12:02:43;;;;;;;5.80;2.25;;;10.60;96.40;;;;;;5080247;28;20048;-67
2022/02/24 12:05:29;;;;;;;9.43;2.28;;;10.60;96.40;;;;;;5095593;28;20088;-67
2022/02/24 12:08:12;;;;;;;10.20;2.60;;;10.60;96.40;;;;;;5095509;28;20044;-67
2022/02/24 12:10:46;;;;;;;4.22;2.20;;;10.70;96.30;;;;;;5096017;28;20043;-67
2022/02/24 12:13:29;;;;;;;8.43;2.33;;;10.70;96.30;;;;;;5095132;28;20052;-67
2022/02/24 12:16:15;;;;;;;12.93;2.93;;;10.70;96.30;;;;;;5092984;28;20028;-67
2022/02/24 12:18:42;;;;;;;7.53;2.28;;;10.80;96.10;;;;;;5079863;28;20036;-67
2022/02/24 12:21:30;;;;;;;3.63;1.52;;;10.70;96.00;;;;;;5093337;28;20035;-67
2022/02/24 12:23:58;;;;;;;9.25;1.70;;;10.70;96.10;;;;;;5089855;28;20024;-67
2022/02/24 12:26:42;;;;;;;5.05;1.65;;;10.70;96.00;;;;;;5091952;28;20099;-67
2022/02/24 12:29:42;;;;;;;8.35;1.70;;;10.70;96.10;;;;;;5092811;28;20060;-67
2022/02/24 12:32:10;;;;;;;7.72;2.30;;;10.70;96.20;;;;;;5078949;28;20044;-67
2022/02/24 12:34:36;;;;;;;11.27;2.75;;;10.70;96.10;;;;;;5089101;28;20464;-67
2022/02/24 12:37:07;;;;;;;8.88;2.33;;;10.80;96.10;;;;;;5093552;28;20036;-67
2022/02/24 12:39:40;;;;;;;6.97;2.42;;;10.80;96.10;;;;;;5093046;28;20035;-70
2022/02/24 12:42:10;;;;;;;9.85;3.17;;;10.80;96.20;;;;;;5091480;28;20067;-72
2022/02/24 12:44:36;;;;;;;7.22;1.73;;;10.80;96.20;;;;;;5083953;28;20535;-67
2022/02/24 12:47:03;;;;;;;5.30;2.35;;;10.80;96.30;;;;;;5092737;28;20185;-67
2022/02/24 12:49:52;;;;;;;8.52;2.00;;;10.70;96.50;;;;;;5090136;28;20027;-67
2022/02/24 12:52:24;;;;;;;9.57;2.17;;;10.80;96.70;;;;;;5093909;28;20043;-67
2022/02/24 12:54:50;;;;;;;4.32;2.00;;;10.70;96.40;;;;;;5093320;28;20413;-67
2022/02/24 12:57:16;;;;;;;7.05;2.25;;;10.60;96.50;;;;;;5093327;28;20028;-67